EIDW - Dublin
Distance from station: E 5mi, 14km
Updated: 12/14/2017 9:00am
Few Clouds
Few Clouds
 Wind from W
Wind: W 15 mph , 24 km/h
Temperature: 37°F , 3°C
Wind Chill: 28°F , -2°C
Dew Point: 36°F , 2°C
Humidity: 93%
Barometer: 29.18 inHg , 988 hPa
Clouds: Few Clouds
Visibility: 6 miles , 10 km
Cloud details: Few Clouds 1500 ft
Few Clouds 1800 ft
2017/12/14 17:00 EIDW 141700Z 27013KT 9999 FEW015 FEW018CB 03/02 Q0988 NOSIG